sensor_id;sensor_type;location;lat;lon;timestamp;temperature;humidity
20384;DHT22;46458;50.966;7.002;2023-12-20T00:00:10;8.00;1.00
20384;DHT22;46458;50.966;7.002;2023-12-20T00:02:39;8.10;1.00
20384;DHT22;46458;50.966;7.002;2023-12-20T00:05:12;8.10;1.00
20384;DHT22;46458;50.966;7.002;2023-12-20T00:07:41;8.10;1.00
20384;DHT22;46458;50.966;7.002;2023-12-20T00:10:10;8.00;1.00
20384;DHT22;46458;50.966;7.002;2023-12-20T00:12:42;8.10;1.00
20384;DHT22;46458;50.966;7.002;2023-12-20T00:15:08;8.10;1.00
20384;DHT22;46458;50.966;7.002;2023-12-20T00:17:37;8.20;1.00
20384;DHT22;46458;50.966;7.002;2023-12-20T00:20:07;8.10;1.00
20384;DHT22;46458;50.966;7.002;2023-12-20T00:22:36;8.10;1.00
20384;DHT22;46458;50.966;7.002;2023-12-20T00:25:06;8.10;1.00
20384;DHT22;46458;50.966;7.002;2023-12-20T00:27:38;8.10;1.00
20384;DHT22;46458;50.966;7.002;2023-12-20T00:30:10;7.80;1.00
20384;DHT22;46458;50.966;7.002;2023-12-20T00:32:42;8.00;1.00
20384;DHT22;46458;50.966;7.002;2023-12-20T00:35:12;8.00;1.00
20384;DHT22;46458;50.966;7.002;2023-12-20T00:37:41;8.00;1.00
20384;DHT22;46458;50.966;7.002;2023-12-20T00:40:11;8.00;1.00
20384;DHT22;46458;50.966;7.002;2023-12-20T00:42:40;8.00;1.00
20384;DHT22;46458;50.966;7.002;2023-12-20T00:45:11;7.90;1.00
20384;DHT22;46458;50.966;7.002;2023-12-20T00:47:40;8.00;1.00
20384;DHT22;46458;50.966;7.002;2023-12-20T00:50:10;8.00;1.00
20384;DHT22;46458;50.966;7.002;2023-12-20T00:52:39;7.90;1.00
20384;DHT22;46458;50.966;7.002;2023-12-20T00:55:08;7.90;1.00
20384;DHT22;46458;50.966;7.002;2023-12-20T00:57:37;7.90;1.00
20384;DHT22;46458;50.966;7.002;2023-12-20T01:00:11;7.90;1.00
20384;DHT22;46458;50.966;7.002;2023-12-20T01:02:40;7.80;1.00
20384;DHT22;46458;50.966;7.002;2023-12-20T01:05:09;7.80;1.00
20384;DHT22;46458;50.966;7.002;2023-12-20T01:07:38;8.60;1.00
20384;DHT22;46458;50.966;7.002;2023-12-20T01:10:08;7.70;1.00
20384;DHT22;46458;50.966;7.002;2023-12-20T01:12:36;7.80;1.00
20384;DHT22;46458;50.966;7.002;2023-12-20T01:15:06;7.70;1.00
20384;DHT22;46458;50.966;7.002;2023-12-20T01:17:37;7.60;1.00
20384;DHT22;46458;50.966;7.002;2023-12-20T01:20:07;7.70;1.00
20384;DHT22;46458;50.966;7.002;2023-12-20T01:22:37;7.60;1.00
20384;DHT22;46458;50.966;7.002;2023-12-20T01:25:06;7.40;1.00
20384;DHT22;46458;50.966;7.002;2023-12-20T01:27:35;7.40;1.00
20384;DHT22;46458;50.966;7.002;2023-12-20T01:30:01;7.40;1.00
20384;DHT22;46458;50.966;7.002;2023-12-20T01:32:30;7.30;1.00
20384;DHT22;46458;50.966;7.002;2023-12-20T01:35:02;7.50;1.00
20384;DHT22;46458;50.966;7.002;2023-12-20T01:37:31;7.40;1.00
20384;DHT22;46458;50.966;7.002;2023-12-20T01:39:59;7.50;1.00
20384;DHT22;46458;50.966;7.002;2023-12-20T01:42:28;7.50;1.00
20384;DHT22;46458;50.966;7.002;2023-12-20T01:44:57;7.30;99.90
20384;DHT22;46458;50.966;7.002;2023-12-20T01:47:26;7.60;99.90
20384;DHT22;46458;50.966;7.002;2023-12-20T01:49:55;7.70;99.90
20384;DHT22;46458;50.966;7.002;2023-12-20T01:52:28;7.80;1.00
20384;DHT22;46458;50.966;7.002;2023-12-20T01:54:57;7.60;1.00
20384;DHT22;46458;50.966;7.002;2023-12-20T01:57:29;7.90;1.00
20384;DHT22;46458;50.966;7.002;2023-12-20T01:59:58;7.70;1.00
20384;DHT22;46458;50.966;7.002;2023-12-20T02:02:27;7.60;99.90
20384;DHT22;46458;50.966;7.002;2023-12-20T02:04:57;7.70;1.00
20384;DHT22;46458;50.966;7.002;2023-12-20T02:07:29;7.90;99.90
20384;DHT22;46458;50.966;7.002;2023-12-20T02:09:59;7.70;1.00
20384;DHT22;46458;50.966;7.002;2023-12-20T02:12:28;7.80;1.00
20384;DHT22;46458;50.966;7.002;2023-12-20T02:14:56;7.60;1.00
20384;DHT22;46458;50.966;7.002;2023-12-20T02:17:26;7.50;1.00
20384;DHT22;46458;50.966;7.002;2023-12-20T02:19:55;7.30;1.00
20384;DHT22;46458;50.966;7.002;2023-12-20T02:22:26;7.40;14.50
20384;DHT22;46458;50.966;7.002;2023-12-20T02:24:55;7.50;11.80
20384;DHT22;46458;50.966;7.002;2023-12-20T02:27:24;7.20;1.00
20384;DHT22;46458;50.966;7.002;2023-12-20T02:29:53;7.10;1.00
20384;DHT22;46458;50.966;7.002;2023-12-20T02:32:23;7.00;1.00
20384;DHT22;46458;50.966;7.002;2023-12-20T02:34:53;6.90;1.00
20384;DHT22;46458;50.966;7.002;2023-12-20T02:37:22;7.00;1.00
20384;DHT22;46458;50.966;7.002;2023-12-20T02:39:53;7.00;1.00
20384;DHT22;46458;50.966;7.002;2023-12-20T02:42:22;6.90;92.70
20384;DHT22;46458;50.966;7.002;2023-12-20T02:44:53;7.00;1.00
20384;DHT22;46458;50.966;7.002;2023-12-20T02:47:22;7.00;1.00
20384;DHT22;46458;50.966;7.002;2023-12-20T02:49:51;7.20;1.00
20384;DHT22;46458;50.966;7.002;2023-12-20T02:52:19;7.10;99.90
20384;DHT22;46458;50.966;7.002;2023-12-20T02:54:48;7.10;99.90
20384;DHT22;46458;50.966;7.002;2023-12-20T02:57:20;7.10;17.50
20384;DHT22;46458;50.966;7.002;2023-12-20T02:59:49;7.20;1.00
20384;DHT22;46458;50.966;7.002;2023-12-20T03:02:18;7.20;1.00
20384;DHT22;46458;50.966;7.002;2023-12-20T03:04:46;7.10;1.00
20384;DHT22;46458;50.966;7.002;2023-12-20T03:07:15;7.20;1.00
20384;DHT22;46458;50.966;7.002;2023-12-20T03:09:44;6.30;1.00
20384;DHT22;46458;50.966;7.002;2023-12-20T03:12:13;7.00;1.00
20384;DHT22;46458;50.966;7.002;2023-12-20T03:14:47;7.00;99.90
20384;DHT22;46458;50.966;7.002;2023-12-20T03:17:16;7.00;1.00
20384;DHT22;46458;50.966;7.002;2023-12-20T03:19:46;7.10;38.50
20384;DHT22;46458;50.966;7.002;2023-12-20T03:22:15;7.60;1.00
20384;DHT22;46458;50.966;7.002;2023-12-20T03:24:44;7.20;1.00
20384;DHT22;46458;50.966;7.002;2023-12-20T03:27:13;7.20;1.00
20384;DHT22;46458;50.966;7.002;2023-12-20T03:29:44;7.10;99.90
20384;DHT22;46458;50.966;7.002;2023-12-20T03:32:13;7.10;99.90
20384;DHT22;46458;50.966;7.002;2023-12-20T03:34:42;7.10;1.00
20384;DHT22;46458;50.966;7.002;2023-12-20T03:37:11;7.30;99.90
20384;DHT22;46458;50.966;7.002;2023-12-20T03:39:40;7.40;99.90
20384;DHT22;46458;50.966;7.002;2023-12-20T03:42:08;7.10;99.90
20384;DHT22;46458;50.966;7.002;2023-12-20T03:44:39;7.20;1.00
20384;DHT22;46458;50.966;7.002;2023-12-20T03:47:10;7.20;99.90
20384;DHT22;46458;50.966;7.002;2023-12-20T03:49:39;7.40;1.00
20384;DHT22;46458;50.966;7.002;2023-12-20T03:52:08;7.30;99.90
20384;DHT22;46458;50.966;7.002;2023-12-20T03:54:37;7.20;1.00
20384;DHT22;46458;50.966;7.002;2023-12-20T03:57:06;7.30;1.00
20384;DHT22;46458;50.966;7.002;2023-12-20T03:59:35;7.10;1.00
20384;DHT22;46458;50.966;7.002;2023-12-20T04:02:04;7.20;99.90
20384;DHT22;46458;50.966;7.002;2023-12-20T04:04:38;7.00;99.90
20384;DHT22;46458;50.966;7.002;2023-12-20T04:07:07;6.50;63.50
20384;DHT22;46458;50.966;7.002;2023-12-20T04:09:36;7.30;99.90
20384;DHT22;46458;50.966;7.002;2023-12-20T04:12:06;7.20;26.50
20384;DHT22;46458;50.966;7.002;2023-12-20T04:14:35;7.10;1.00
20384;DHT22;46458;50.966;7.002;2023-12-20T04:17:04;7.20;1.00
20384;DHT22;46458;50.966;7.002;2023-12-20T04:19:35;7.10;99.90
20384;DHT22;46458;50.966;7.002;2023-12-20T04:22:04;7.00;99.90
20384;DHT22;46458;50.966;7.002;2023-12-20T04:24:33;7.20;99.90
20384;DHT22;46458;50.966;7.002;2023-12-20T04:27:02;7.00;99.90
20384;DHT22;46458;50.966;7.002;2023-12-20T04:29:34;7.00;1.00
20384;DHT22;46458;50.966;7.002;2023-12-20T04:32:03;7.10;99.90
20384;DHT22;46458;50.966;7.002;2023-12-20T04:34:35;7.10;99.90
20384;DHT22;46458;50.966;7.002;2023-12-20T04:37:04;7.00;99.90
20384;DHT22;46458;50.966;7.002;2023-12-20T04:39:33;7.10;7.90
20384;DHT22;46458;50.966;7.002;2023-12-20T04:42:01;7.00;1.00
20384;DHT22;46458;50.966;7.002;2023-12-20T04:44:30;7.60;1.00
20384;DHT22;46458;50.966;7.002;2023-12-20T04:46:59;7.00;1.00
20384;DHT22;46458;50.966;7.002;2023-12-20T04:49:29;7.10;99.90
20384;DHT22;46458;50.966;7.002;2023-12-20T04:52:00;7.00;99.90
20384;DHT22;46458;50.966;7.002;2023-12-20T04:54:29;6.90;1.00
20384;DHT22;46458;50.966;7.002;2023-12-20T04:56:58;6.80;1.00
20384;DHT22;46458;50.966;7.002;2023-12-20T04:59:27;6.90;1.00
20384;DHT22;46458;50.966;7.002;2023-12-20T05:01:55;7.10;1.00
20384;DHT22;46458;50.966;7.002;2023-12-20T05:04:24;7.00;1.00
20384;DHT22;46458;50.966;7.002;2023-12-20T05:06:53;7.00;1.00
20384;DHT22;46458;50.966;7.002;2023-12-20T05:09:24;6.90;1.00
20384;DHT22;46458;50.966;7.002;2023-12-20T05:11:53;7.00;99.90
20384;DHT22;46458;50.966;7.002;2023-12-20T05:14:22;6.80;1.00
20384;DHT22;46458;50.966;7.002;2023-12-20T05:16:51;6.90;99.90
20384;DHT22;46458;50.966;7.002;2023-12-20T05:19:20;6.80;1.00
20384;DHT22;46458;50.966;7.002;2023-12-20T05:21:48;6.80;1.00
20384;DHT22;46458;50.966;7.002;2023-12-20T05:24:17;6.60;1.00
20384;DHT22;46458;50.966;7.002;2023-12-20T05:26:49;6.70;1.00
20384;DHT22;46458;50.966;7.002;2023-12-20T05:29:18;6.60;99.90
20384;DHT22;46458;50.966;7.002;2023-12-20T05:31:47;6.70;99.90
20384;DHT22;46458;50.966;7.002;2023-12-20T05:34:15;6.70;99.90
20384;DHT22;46458;50.966;7.002;2023-12-20T05:36:45;6.90;99.90
20384;DHT22;46458;50.966;7.002;2023-12-20T05:39:14;6.50;1.00
20384;DHT22;46458;50.966;7.002;2023-12-20T05:41:42;6.50;1.00
20384;DHT22;46458;50.966;7.002;2023-12-20T05:44:14;6.50;1.00
20384;DHT22;46458;50.966;7.002;2023-12-20T05:46:42;6.50;1.00
20384;DHT22;46458;50.966;7.002;2023-12-20T05:49:11;6.50;1.00
20384;DHT22;46458;50.966;7.002;2023-12-20T05:51:40;6.50;99.90
20384;DHT22;46458;50.966;7.002;2023-12-20T05:54:11;6.70;1.00
20384;DHT22;46458;50.966;7.002;2023-12-20T05:56:40;6.60;1.00
20384;DHT22;46458;50.966;7.002;2023-12-20T05:59:09;6.60;1.00
20384;DHT22;46458;50.966;7.002;2023-12-20T06:01:40;6.70;1.00
20384;DHT22;46458;50.966;7.002;2023-12-20T06:04:09;6.70;1.00
20384;DHT22;46458;50.966;7.002;2023-12-20T06:06:41;6.80;1.00
20384;DHT22;46458;50.966;7.002;2023-12-20T06:09:10;6.80;99.90
20384;DHT22;46458;50.966;7.002;2023-12-20T06:11:41;6.70;1.00
20384;DHT22;46458;50.966;7.002;2023-12-20T06:14:09;6.80;99.90
20384;DHT22;46458;50.966;7.002;2023-12-20T06:16:41;6.60;99.90
20384;DHT22;46458;50.966;7.002;2023-12-20T06:19:11;6.60;1.00
20384;DHT22;46458;50.966;7.002;2023-12-20T06:21:39;6.80;99.90
20384;DHT22;46458;50.966;7.002;2023-12-20T06:24:08;6.80;99.90
20384;DHT22;46458;50.966;7.002;2023-12-20T06:26:37;7.00;99.90
20384;DHT22;46458;50.966;7.002;2023-12-20T06:29:06;6.80;1.00
20384;DHT22;46458;50.966;7.002;2023-12-20T06:31:35;6.90;99.90
20384;DHT22;46458;50.966;7.002;2023-12-20T06:34:06;6.90;1.00
20384;DHT22;46458;50.966;7.002;2023-12-20T06:36:36;7.00;99.90
20384;DHT22;46458;50.966;7.002;2023-12-20T06:39:05;6.90;1.00
20384;DHT22;46458;50.966;7.002;2023-12-20T06:41:34;6.90;1.00
20384;DHT22;46458;50.966;7.002;2023-12-20T06:44:03;7.00;99.90
20384;DHT22;46458;50.966;7.002;2023-12-20T06:46:32;6.90;1.00
20384;DHT22;46458;50.966;7.002;2023-12-20T06:49:01;6.90;99.90
20384;DHT22;46458;50.966;7.002;2023-12-20T06:51:32;7.00;99.90
20384;DHT22;46458;50.966;7.002;2023-12-20T06:54:01;7.00;1.00
20384;DHT22;46458;50.966;7.002;2023-12-20T06:56:30;7.00;99.90
20384;DHT22;46458;50.966;7.002;2023-12-20T06:58:59;7.00;1.00
20384;DHT22;46458;50.966;7.002;2023-12-20T07:01:28;7.00;1.00
20384;DHT22;46458;50.966;7.002;2023-12-20T07:03:57;7.00;1.00
20384;DHT22;46458;50.966;7.002;2023-12-20T07:06:25;7.10;1.00
20384;DHT22;46458;50.966;7.002;2023-12-20T07:08:57;7.00;1.00
20384;DHT22;46458;50.966;7.002;2023-12-20T07:11:26;7.10;1.00
20384;DHT22;46458;50.966;7.002;2023-12-20T07:13:55;7.10;22.50
20384;DHT22;46458;50.966;7.002;2023-12-20T07:16:24;7.70;1.00
20384;DHT22;46458;50.966;7.002;2023-12-20T07:18:53;7.00;1.00
20384;DHT22;46458;50.966;7.002;2023-12-20T07:21:22;7.10;1.00
20384;DHT22;46458;50.966;7.002;2023-12-20T07:23:51;7.10;1.00
20384;DHT22;46458;50.966;7.002;2023-12-20T07:26:23;7.20;1.00
20384;DHT22;46458;50.966;7.002;2023-12-20T07:28:51;7.70;99.90
20384;DHT22;46458;50.966;7.002;2023-12-20T07:31:20;7.10;99.90
20384;DHT22;46458;50.966;7.002;2023-12-20T07:33:50;7.60;1.00
20384;DHT22;46458;50.966;7.002;2023-12-20T07:36:19;7.30;1.00
20384;DHT22;46458;50.966;7.002;2023-12-20T07:38:48;7.10;99.90
20384;DHT22;46458;50.966;7.002;2023-12-20T07:41:17;7.10;1.00
20384;DHT22;46458;50.966;7.002;2023-12-20T07:43:49;7.30;99.90
20384;DHT22;46458;50.966;7.002;2023-12-20T07:46:21;7.20;1.00
20384;DHT22;46458;50.966;7.002;2023-12-20T07:48:51;7.10;35.90
20384;DHT22;46458;50.966;7.002;2023-12-20T07:51:20;7.20;99.90
20384;DHT22;46458;50.966;7.002;2023-12-20T07:53:48;7.30;16.40
20384;DHT22;46458;50.966;7.002;2023-12-20T07:56:18;7.20;99.90
20384;DHT22;46458;50.966;7.002;2023-12-20T07:58:50;7.10;99.90
20384;DHT22;46458;50.966;7.002;2023-12-20T08:01:19;7.30;99.90
20384;DHT22;46458;50.966;7.002;2023-12-20T08:03:48;7.10;1.00
20384;DHT22;46458;50.966;7.002;2023-12-20T08:06:17;7.30;1.00
20384;DHT22;46458;50.966;7.002;2023-12-20T08:08:46;7.10;1.00
20384;DHT22;46458;50.966;7.002;2023-12-20T08:11:16;7.10;1.00
20384;DHT22;46458;50.966;7.002;2023-12-20T08:13:45;7.40;99.60
20384;DHT22;46458;50.966;7.002;2023-12-20T08:16:16;7.40;1.00
20384;DHT22;46458;50.966;7.002;2023-12-20T08:18:47;7.30;99.90
20384;DHT22;46458;50.966;7.002;2023-12-20T08:21:16;7.30;1.00
20384;DHT22;46458;50.966;7.002;2023-12-20T08:23:46;7.20;1.00
20384;DHT22;46458;50.966;7.002;2023-12-20T08:26:18;7.30;99.90
20384;DHT22;46458;50.966;7.002;2023-12-20T08:28:50;7.20;1.00
20384;DHT22;46458;50.966;7.002;2023-12-20T08:31:21;7.20;1.00
20384;DHT22;46458;50.966;7.002;2023-12-20T08:33:50;7.30;1.00
20384;DHT22;46458;50.966;7.002;2023-12-20T08:36:19;7.30;1.00
20384;DHT22;46458;50.966;7.002;2023-12-20T08:38:49;7.30;1.00
20384;DHT22;46458;50.966;7.002;2023-12-20T08:41:18;7.20;1.00
20384;DHT22;46458;50.966;7.002;2023-12-20T08:43:47;7.30;1.00
20384;DHT22;46458;50.966;7.002;2023-12-20T08:46:17;7.40;99.90
20384;DHT22;46458;50.966;7.002;2023-12-20T08:48:48;7.30;99.90
20384;DHT22;46458;50.966;7.002;2023-12-20T08:51:17;7.40;99.90
20384;DHT22;46458;50.966;7.002;2023-12-20T08:53:47;7.40;1.00
20384;DHT22;46458;50.966;7.002;2023-12-20T08:56:16;7.50;1.00
20384;DHT22;46458;50.966;7.002;2023-12-20T08:58:45;7.30;1.00
20384;DHT22;46458;50.966;7.002;2023-12-20T09:01:14;7.40;99.90
20384;DHT22;46458;50.966;7.002;2023-12-20T09:03:43;7.40;99.90
20384;DHT22;46458;50.966;7.002;2023-12-20T09:06:15;7.20;99.90
20384;DHT22;46458;50.966;7.002;2023-12-20T09:08:44;7.40;99.90
20384;DHT22;46458;50.966;7.002;2023-12-20T09:11:13;7.30;99.90
20384;DHT22;46458;50.966;7.002;2023-12-20T09:13:43;7.30;99.90
20384;DHT22;46458;50.966;7.002;2023-12-20T09:16:12;7.70;99.90
20384;DHT22;46458;50.966;7.002;2023-12-20T09:18:41;7.30;99.90
20384;DHT22;46458;50.966;7.002;2023-12-20T09:21:10;7.90;99.90
20384;DHT22;46458;50.966;7.002;2023-12-20T09:23:44;7.40;1.00
20384;DHT22;46458;50.966;7.002;2023-12-20T09:26:13;7.40;99.90
20384;DHT22;46458;50.966;7.002;2023-12-20T09:28:42;7.90;99.90
20384;DHT22;46458;50.966;7.002;2023-12-20T09:31:11;8.00;99.90
20384;DHT22;46458;50.966;7.002;2023-12-20T09:33:39;7.40;99.90
20384;DHT22;46458;50.966;7.002;2023-12-20T09:36:08;7.40;90.90
20384;DHT22;46458;50.966;7.002;2023-12-20T09:38:37;7.50;1.00
20384;DHT22;46458;50.966;7.002;2023-12-20T09:41:09;7.50;16.10
20384;DHT22;46458;50.966;7.002;2023-12-20T09:43:38;7.50;99.90
20384;DHT22;46458;50.966;7.002;2023-12-20T09:46:11;8.00;1.00
20384;DHT22;46458;50.966;7.002;2023-12-20T09:48:41;7.60;1.00
20384;DHT22;46458;50.966;7.002;2023-12-20T09:51:11;7.60;1.00
20384;DHT22;46458;50.966;7.002;2023-12-20T09:53:41;7.60;11.80
20384;DHT22;46458;50.966;7.002;2023-12-20T09:56:14;7.90;1.00
20384;DHT22;46458;50.966;7.002;2023-12-20T09:58:43;7.70;1.00
20384;DHT22;46458;50.966;7.002;2023-12-20T10:03:43;7.70;1.00
20384;DHT22;46458;50.966;7.002;2023-12-20T10:06:13;7.80;1.00
20384;DHT22;46458;50.966;7.002;2023-12-20T10:08:42;7.80;47.40
20384;DHT22;46458;50.966;7.002;2023-12-20T10:11:13;8.20;1.00
20384;DHT22;46458;50.966;7.002;2023-12-20T10:13:43;7.70;1.00
20384;DHT22;46458;50.966;7.002;2023-12-20T10:16:12;7.60;1.00
20384;DHT22;46458;50.966;7.002;2023-12-20T10:18:41;7.80;1.00
20384;DHT22;46458;50.966;7.002;2023-12-20T10:21:10;7.60;1.00
20384;DHT22;46458;50.966;7.002;2023-12-20T10:23:39;7.60;1.00
20384;DHT22;46458;50.966;7.002;2023-12-20T10:26:08;7.60;1.00
20384;DHT22;46458;50.966;7.002;2023-12-20T10:28:41;7.60;1.00
20384;DHT22;46458;50.966;7.002;2023-12-20T10:31:09;7.70;1.00
20384;DHT22;46458;50.966;7.002;2023-12-20T10:33:40;7.70;1.00
20384;DHT22;46458;50.966;7.002;2023-12-20T10:36:09;7.70;1.00
20384;DHT22;46458;50.966;7.002;2023-12-20T10:38:40;8.00;1.00
20384;DHT22;46458;50.966;7.002;2023-12-20T10:41:11;7.90;1.00
20384;DHT22;46458;50.966;7.002;2023-12-20T10:43:45;7.70;1.00
20384;DHT22;46458;50.966;7.002;2023-12-20T10:46:15;7.70;1.00
20384;DHT22;46458;50.966;7.002;2023-12-20T10:48:45;7.80;1.00
20384;DHT22;46458;50.966;7.002;2023-12-20T10:51:17;7.80;1.00
20384;DHT22;46458;50.966;7.002;2023-12-20T10:53:47;7.70;1.00
20384;DHT22;46458;50.966;7.002;2023-12-20T10:56:17;7.80;1.00
20384;DHT22;46458;50.966;7.002;2023-12-20T10:58:49;7.90;1.00
20384;DHT22;46458;50.966;7.002;2023-12-20T11:01:19;7.90;1.00
20384;DHT22;46458;50.966;7.002;2023-12-20T11:03:50;7.80;1.00
20384;DHT22;46458;50.966;7.002;2023-12-20T11:06:27;7.70;1.00
20384;DHT22;46458;50.966;7.002;2023-12-20T11:09:04;7.60;1.00
20384;DHT22;46458;50.966;7.002;2023-12-20T11:11:46;7.80;1.00
20384;DHT22;46458;50.966;7.002;2023-12-20T11:14:25;7.80;1.00
20384;DHT22;46458;50.966;7.002;2023-12-20T11:17:06;7.80;1.00
20384;DHT22;46458;50.966;7.002;2023-12-20T11:19:38;8.30;1.00
20384;DHT22;46458;50.966;7.002;2023-12-20T11:22:07;7.70;1.00
20384;DHT22;46458;50.966;7.002;2023-12-20T11:24:44;7.80;1.00
20384;DHT22;46458;50.966;7.002;2023-12-20T11:27:14;7.90;1.00
20384;DHT22;46458;50.966;7.002;2023-12-20T11:29:51;7.90;1.00
20384;DHT22;46458;50.966;7.002;2023-12-20T11:32:30;7.80;1.00
20384;DHT22;46458;50.966;7.002;2023-12-20T11:35:00;7.90;1.00
20384;DHT22;46458;50.966;7.002;2023-12-20T11:37:30;8.00;1.00
20384;DHT22;46458;50.966;7.002;2023-12-20T11:40:01;7.90;1.00
20384;DHT22;46458;50.966;7.002;2023-12-20T11:42:33;8.00;1.00
20384;DHT22;46458;50.966;7.002;2023-12-20T11:45:05;8.00;1.00
20384;DHT22;46458;50.966;7.002;2023-12-20T11:47:36;8.10;1.00
20384;DHT22;46458;50.966;7.002;2023-12-20T11:50:07;8.00;1.00
20384;DHT22;46458;50.966;7.002;2023-12-20T11:52:36;8.00;1.00
20384;DHT22;46458;50.966;7.002;2023-12-20T11:55:05;8.00;1.00
20384;DHT22;46458;50.966;7.002;2023-12-20T11:57:35;8.00;1.00
20384;DHT22;46458;50.966;7.002;2023-12-20T12:00:08;7.90;1.00
20384;DHT22;46458;50.966;7.002;2023-12-20T12:02:39;8.00;1.00
20384;DHT22;46458;50.966;7.002;2023-12-20T12:05:08;8.00;1.00
20384;DHT22;46458;50.966;7.002;2023-12-20T12:07:37;8.10;1.00
20384;DHT22;46458;50.966;7.002;2023-12-20T12:10:07;8.00;1.00
20384;DHT22;46458;50.966;7.002;2023-12-20T12:12:36;8.00;1.00
20384;DHT22;46458;50.966;7.002;2023-12-20T12:15:10;7.90;1.00
20384;DHT22;46458;50.966;7.002;2023-12-20T12:17:39;8.00;1.00
20384;DHT22;46458;50.966;7.002;2023-12-20T12:20:08;8.10;1.00
20384;DHT22;46458;50.966;7.002;2023-12-20T12:22:38;8.00;1.00
20384;DHT22;46458;50.966;7.002;2023-12-20T12:25:11;7.80;1.00
20384;DHT22;46458;50.966;7.002;2023-12-20T12:27:40;8.20;1.00
20384;DHT22;46458;50.966;7.002;2023-12-20T12:30:12;8.10;1.00
20384;DHT22;46458;50.966;7.002;2023-12-20T12:32:41;8.00;1.00
20384;DHT22;46458;50.966;7.002;2023-12-20T12:35:10;8.00;1.00
20384;DHT22;46458;50.966;7.002;2023-12-20T12:37:40;8.00;1.00
20384;DHT22;46458;50.966;7.002;2023-12-20T12:40:11;8.00;1.00
20384;DHT22;46458;50.966;7.002;2023-12-20T12:42:40;8.00;1.00
20384;DHT22;46458;50.966;7.002;2023-12-20T12:45:12;7.90;1.00
20384;DHT22;46458;50.966;7.002;2023-12-20T12:47:41;8.00;1.00
20384;DHT22;46458;50.966;7.002;2023-12-20T12:50:10;8.00;1.00
20384;DHT22;46458;50.966;7.002;2023-12-20T12:52:39;8.10;1.00
20384;DHT22;46458;50.966;7.002;2023-12-20T12:55:08;8.00;1.00
20384;DHT22;46458;50.966;7.002;2023-12-20T12:57:37;8.20;1.00
20384;DHT22;46458;50.966;7.002;2023-12-20T13:00:07;8.00;1.00
20384;DHT22;46458;50.966;7.002;2023-12-20T13:02:39;8.00;1.00
20384;DHT22;46458;50.966;7.002;2023-12-20T13:05:10;8.10;1.00
20384;DHT22;46458;50.966;7.002;2023-12-20T13:07:38;8.00;1.00
20384;DHT22;46458;50.966;7.002;2023-12-20T13:10:11;8.00;1.00
20384;DHT22;46458;50.966;7.002;2023-12-20T13:12:42;8.50;13.00
20384;DHT22;46458;50.966;7.002;2023-12-20T13:15:11;7.90;1.00
20384;DHT22;46458;50.966;7.002;2023-12-20T13:17:42;8.70;12.60
20384;DHT22;46458;50.966;7.002;2023-12-20T13:20:12;8.20;1.00
20384;DHT22;46458;50.966;7.002;2023-12-20T13:22:41;8.20;1.00
20384;DHT22;46458;50.966;7.002;2023-12-20T13:25:09;8.20;1.70
20384;DHT22;46458;50.966;7.002;2023-12-20T13:27:38;8.30;1.00
20384;DHT22;46458;50.966;7.002;2023-12-20T13:30:08;8.30;1.00
20384;DHT22;46458;50.966;7.002;2023-12-20T13:32:37;8.30;68.10
20384;DHT22;46458;50.966;7.002;2023-12-20T13:35:08;8.40;99.90
20384;DHT22;46458;50.966;7.002;2023-12-20T13:37:38;8.30;99.90
20384;DHT22;46458;50.966;7.002;2023-12-20T13:40:11;8.40;99.90
20384;DHT22;46458;50.966;7.002;2023-12-20T13:42:40;8.20;1.00
20384;DHT22;46458;50.966;7.002;2023-12-20T13:45:09;8.20;1.00
20384;DHT22;46458;50.966;7.002;2023-12-20T13:47:38;8.20;1.00
20384;DHT22;46458;50.966;7.002;2023-12-20T13:50:10;8.20;1.00
20384;DHT22;46458;50.966;7.002;2023-12-20T13:52:39;8.30;99.90
20384;DHT22;46458;50.966;7.002;2023-12-20T13:55:08;8.50;99.90
20384;DHT22;46458;50.966;7.002;2023-12-20T13:57:37;8.30;99.90
20384;DHT22;46458;50.966;7.002;2023-12-20T14:00:08;8.30;99.90
20384;DHT22;46458;50.966;7.002;2023-12-20T14:02:40;8.20;99.90
20384;DHT22;46458;50.966;7.002;2023-12-20T14:05:12;8.30;99.90
20384;DHT22;46458;50.966;7.002;2023-12-20T14:07:43;8.10;1.00
20384;DHT22;46458;50.966;7.002;2023-12-20T14:10:13;8.10;1.00
20384;DHT22;46458;50.966;7.002;2023-12-20T14:12:42;8.20;1.00
20384;DHT22;46458;50.966;7.002;2023-12-20T14:15:11;8.20;1.00
20384;DHT22;46458;50.966;7.002;2023-12-20T14:17:40;8.20;1.00
20384;DHT22;46458;50.966;7.002;2023-12-20T14:20:13;8.20;1.00
20384;DHT22;46458;50.966;7.002;2023-12-20T14:22:42;8.00;1.00
20384;DHT22;46458;50.966;7.002;2023-12-20T14:25:13;8.30;1.00
20384;DHT22;46458;50.966;7.002;2023-12-20T14:27:42;8.20;1.00
20384;DHT22;46458;50.966;7.002;2023-12-20T14:30:13;8.20;1.00
20384;DHT22;46458;50.966;7.002;2023-12-20T14:32:42;8.70;1.00
20384;DHT22;46458;50.966;7.002;2023-12-20T14:35:15;8.20;1.00
20384;DHT22;46458;50.966;7.002;2023-12-20T14:37:45;8.40;1.00
20384;DHT22;46458;50.966;7.002;2023-12-20T14:40:16;8.30;1.00
20384;DHT22;46458;50.966;7.002;2023-12-20T14:42:45;8.20;1.00
20384;DHT22;46458;50.966;7.002;2023-12-20T14:45:15;8.30;1.00
20384;DHT22;46458;50.966;7.002;2023-12-20T14:47:44;8.60;1.00
20384;DHT22;46458;50.966;7.002;2023-12-20T14:50:16;8.60;1.00
20384;DHT22;46458;50.966;7.002;2023-12-20T14:52:45;8.40;99.90
20384;DHT22;46458;50.966;7.002;2023-12-20T14:55:15;8.30;99.90
20384;DHT22;46458;50.966;7.002;2023-12-20T14:57:44;8.20;1.00
20384;DHT22;46458;50.966;7.002;2023-12-20T15:00:13;8.80;1.00
20384;DHT22;46458;50.966;7.002;2023-12-20T15:02:42;8.40;1.00
20384;DHT22;46458;50.966;7.002;2023-12-20T15:05:12;8.40;1.00
20384;DHT22;46458;50.966;7.002;2023-12-20T15:07:43;8.70;1.00
20384;DHT22;46458;50.966;7.002;2023-12-20T15:10:13;8.30;1.00
20384;DHT22;46458;50.966;7.002;2023-12-20T15:12:42;8.30;1.00
20384;DHT22;46458;50.966;7.002;2023-12-20T15:15:11;8.30;1.00
20384;DHT22;46458;50.966;7.002;2023-12-20T15:17:40;8.30;1.00
20384;DHT22;46458;50.966;7.002;2023-12-20T15:20:10;8.40;1.00
20384;DHT22;46458;50.966;7.002;2023-12-20T15:22:39;8.40;1.00
20384;DHT22;46458;50.966;7.002;2023-12-20T15:25:14;8.30;1.00
20384;DHT22;46458;50.966;7.002;2023-12-20T15:27:47;8.40;1.00
20384;DHT22;46458;50.966;7.002;2023-12-20T15:30:18;8.50;1.00
20384;DHT22;46458;50.966;7.002;2023-12-20T15:32:47;8.40;1.00
20384;DHT22;46458;50.966;7.002;2023-12-20T15:35:16;8.30;1.00
20384;DHT22;46458;50.966;7.002;2023-12-20T15:37:45;8.40;99.90
20384;DHT22;46458;50.966;7.002;2023-12-20T15:40:17;8.40;1.00
20384;DHT22;46458;50.966;7.002;2023-12-20T15:42:46;8.30;1.00
20384;DHT22;46458;50.966;7.002;2023-12-20T15:45:14;8.20;24.90
20384;DHT22;46458;50.966;7.002;2023-12-20T15:47:44;8.30;99.90
20384;DHT22;46458;50.966;7.002;2023-12-20T15:50:13;8.30;29.60
20384;DHT22;46458;50.966;7.002;2023-12-20T15:52:42;8.30;1.00
20384;DHT22;46458;50.966;7.002;2023-12-20T15:55:11;8.20;1.00
20384;DHT22;46458;50.966;7.002;2023-12-20T15:57:43;8.40;1.00
20384;DHT22;46458;50.966;7.002;2023-12-20T16:00:12;8.50;1.00
20384;DHT22;46458;50.966;7.002;2023-12-20T16:02:41;8.30;85.20
20384;DHT22;46458;50.966;7.002;2023-12-20T16:05:13;8.20;99.90
20384;DHT22;46458;50.966;7.002;2023-12-20T16:07:41;9.20;1.00
20384;DHT22;46458;50.966;7.002;2023-12-20T16:10:10;9.10;30.80
20384;DHT22;46458;50.966;7.002;2023-12-20T16:12:42;8.20;99.90
20384;DHT22;46458;50.966;7.002;2023-12-20T16:15:11;8.20;99.90